Terminal Aerodrome Forecast
Issued by NWS

Home | Current Version | Previous Version | Text Only | Print | Product List | Glossary On
Versions: 1 2 3 4 5 6 7 8 9 10 11 12 13
000
FTUS46 KOTX 270528
TAFMWH
TAF
KMWH 270528Z 2706/2806 26014KT P6SM SCT060 SCT110 BKN150
     FM270800 25013KT P6SM SCT060 BKN100
     FM271600 24013G19KT P6SM FEW060 SCT200
     FM280200 26011KT P6SM FEW050 BKN150=

USA.gov is the U.S. government's official web portal to all federal, state and local government web resources and services.